Time;durP1;ratioP1;P1;durP2;ratioP2;P2;SDS_P1;SDS_P2;PMS_P1;PMS_P2;Temp;Humidity;BMP_temperature;BMP_pressure;BME280_temperature;BME280_humidity;BME280_pressure;Samples;Min_cycle;Max_cycle;Signal;HPM_P1;HPM_P2
2021/05/29 00:01:59;;;;;;;2.67;2.47;;;;;;;12.02;87.42;98695.19;5093680;28;20708;-64
2021/05/29 00:04:25;;;;;;;3.00;2.60;;;;;;;11.97;87.97;98697.28;5094028;28;20223;-64
2021/05/29 00:06:51;;;;;;;3.53;2.50;;;;;;;11.94;88.02;98686.91;5093654;28;20215;-63
2021/05/29 00:09:17;;;;;;;2.60;2.40;;;;;;;11.89;88.25;98686.34;5093743;28;20791;-64
2021/05/29 00:11:43;;;;;;;2.93;2.70;;;;;;;11.87;88.41;98683.78;5093796;28;20235;-63
2021/05/29 00:14:10;;;;;;;3.10;2.80;;;;;;;11.86;88.29;98689.22;5091841;28;20213;-65
2021/05/29 00:16:36;;;;;;;2.47;2.27;;;;;;;11.84;88.46;98686.66;5093801;28;20209;-65
2021/05/29 00:19:02;;;;;;;3.10;2.80;;;;;;;11.86;88.29;98679.47;5093752;28;20206;-66
2021/05/29 00:21:28;;;;;;;2.83;2.63;;;;;;;11.87;88.42;98672.38;5093708;28;20202;-64
2021/05/29 00:23:55;;;;;;;3.07;2.80;;;;;;;11.77;89.02;98679.22;5093613;28;20731;-64
2021/05/29 00:26:21;;;;;;;3.93;2.83;;;;;;;11.77;88.44;98673.91;5093406;28;20256;-64
2021/05/29 00:28:47;;;;;;;4.63;3.17;;;;;;;11.76;86.69;98677.50;5093770;28;20354;-64
2021/05/29 00:31:13;;;;;;;3.40;2.70;;;;;;;11.77;86.54;98665.97;5092892;28;20266;-64
2021/05/29 00:33:40;;;;;;;4.53;3.30;;;;;;;11.77;86.67;98664.19;5093177;28;20232;-64
2021/05/29 00:36:06;;;;;;;3.40;3.07;;;;;;;11.79;86.67;98656.16;5093507;28;20222;-66
2021/05/29 00:38:32;;;;;;;3.20;2.90;;;;;;;11.71;87.83;98654.00;5093399;28;20215;-64
2021/05/29 00:40:58;;;;;;;3.33;2.90;;;;;;;11.70;87.08;98656.72;5091246;28;20211;-65
2021/05/29 00:43:25;;;;;;;3.80;3.50;;;;;;;11.68;87.26;98651.53;5093396;28;20218;-64
2021/05/29 00:45:51;;;;;;;3.53;2.80;;;;;;;11.61;87.92;98652.06;5093202;28;20211;-65
2021/05/29 00:48:17;;;;;;;3.10;2.80;;;;;;;11.50;89.28;98641.28;5092977;28;20305;-64
2021/05/29 00:50:48;;;;;;;3.10;2.90;;;;;;;11.44;90.47;98649.59;5092801;28;20702;-65
2021/05/29 00:53:15;;;;;;;4.53;3.10;;;;;;;11.47;89.35;98652.03;5092959;28;20743;-64
2021/05/29 00:55:41;;;;;;;4.80;3.90;;;;;;;11.49;88.39;98643.06;5093010;28;20666;-65
2021/05/29 00:58:07;;;;;;;3.83;3.47;;;;;;;11.47;88.89;98644.09;5092911;28;20661;-64
2021/05/29 01:00:33;;;;;;;3.57;3.27;;;;;;;11.49;88.20;98639.56;5092383;28;20757;-65
2021/05/29 01:02:59;;;;;;;3.60;3.30;;;;;;;11.49;87.56;98631.63;5093263;28;20205;-65
2021/05/29 01:05:25;;;;;;;3.00;2.70;;;;;;;11.46;88.17;98637.13;5092801;28;20215;-65
2021/05/29 01:07:54;;;;;;;3.33;3.03;;;;;;;11.47;88.53;98633.50;5091511;28;20221;-65
2021/05/29 01:10:22;;;;;;;3.30;3.00;;;;;;;11.47;87.81;98638.81;5092860;28;20222;-65
2021/05/29 01:12:48;;;;;;;4.37;3.47;;;;;;;11.50;86.89;98644.75;5093039;28;20299;-65
2021/05/29 01:15:18;;;;;;;3.83;3.00;;;;;;;11.51;86.71;98642.97;5093123;28;20586;-65
2021/05/29 01:17:44;;;;;;;4.63;3.50;;;;;;;11.54;86.01;98648.91;5093043;28;20219;-64
2021/05/29 01:20:11;;;;;;;3.30;3.00;;;;;;;11.51;87.32;98653.56;5092704;28;20733;-65
2021/05/29 01:22:40;;;;;;;4.73;3.23;;;;;;;11.43;88.39;98651.38;5093077;28;20215;-64
2021/05/29 01:25:12;;;;;;;3.77;3.20;;;;;;;11.37;89.88;98648.31;5092655;28;20214;-64
2021/05/29 01:27:38;;;;;;;2.90;2.70;;;;;;;11.34;90.32;98648.50;5092956;28;20217;-64
2021/05/29 01:30:06;;;;;;;3.63;3.30;;;;;;;11.37;88.95;98640.38;5092952;28;20611;-64
2021/05/29 01:32:33;;;;;;;3.20;2.90;;;;;;;11.42;86.98;98643.53;5091150;28;20212;-63
2021/05/29 01:35:00;;;;;;;3.90;3.50;;;;;;;11.47;85.92;98644.09;5093012;28;20211;-64
2021/05/29 01:37:26;;;;;;;3.70;3.40;;;;;;;11.51;85.43;98648.25;5093032;28;20202;-64
2021/05/29 01:39:53;;;;;;;4.17;3.57;;;;;;;11.46;85.92;98645.91;5092932;28;20203;-63
2021/05/29 01:42:20;;;;;;;3.87;3.10;;;;;;;11.50;85.58;98650.03;5092951;28;20230;-63
2021/05/29 01:44:47;;;;;;;3.67;3.37;;;;;;;11.50;86.05;98649.22;5095811;28;20574;-64
2021/05/29 01:47:13;;;;;;;4.23;3.50;;;;;;;11.49;85.87;98648.34;5096615;28;20210;-64
2021/05/29 01:49:39;;;;;;;3.53;3.23;;;;;;;11.51;85.30;98646.47;5096449;28;20206;-64
2021/05/29 01:52:05;;;;;;;3.77;3.10;;;;;;;11.50;85.69;98649.22;5096309;28;20251;-64
2021/05/29 01:54:31;;;;;;;3.90;3.53;;;;;;;11.52;84.84;98645.53;5096277;28;20214;-64
2021/05/29 01:56:59;;;;;;;5.70;4.07;;;;;;;11.55;84.25;98652.41;5096217;28;20221;-63
2021/05/29 01:59:25;;;;;;;3.90;3.43;;;;;;;11.50;84.52;98642.09;5094861;28;20207;-63
2021/05/29 02:01:51;;;;;;;3.97;3.67;;;;;;;11.43;85.69;98645.28;5096438;28;20214;-64
2021/05/29 02:04:17;;;;;;;3.90;3.60;;;;;;;11.31;87.36;98646.06;5096304;28;20207;-64
2021/05/29 02:06:43;;;;;;;3.73;3.37;;;;;;;11.12;88.98;98642.88;5096158;28;20210;-63
2021/05/29 02:09:09;;;;;;;4.87;3.70;;;;;;;11.03;90.35;98643.44;5096386;28;20216;-64
2021/05/29 02:11:35;;;;;;;3.80;3.17;;;;;;;10.90;90.58;98647.81;5096101;28;20333;-63
2021/05/29 02:14:01;;;;;;;3.90;3.50;;;;;;;10.76;91.65;98646.00;5096202;28;20254;-63
2021/05/29 02:16:27;;;;;;;3.60;3.23;;;;;;;10.61;93.44;98635.53;5096076;28;20213;-63
2021/05/29 02:18:53;;;;;;;4.57;3.60;;;;;;;10.43;95.19;98631.38;5096062;28;20264;-63
2021/05/29 02:21:19;;;;;;;3.80;3.40;;;;;;;10.33;96.44;98649.56;5096055;28;20210;-63
2021/05/29 02:23:48;;;;;;;3.97;3.57;;;;;;;10.16;98.28;98644.44;5095771;28;20210;-63
2021/05/29 02:26:17;;;;;;;4.63;3.47;;;;;;;10.03;100.00;98642.59;5094198;28;20211;-63
2021/05/29 02:28:45;;;;;;;4.20;3.80;;;;;;;9.99;100.00;98643.72;5095948;28;20210;-63
2021/05/29 02:31:13;;;;;;;4.27;3.70;;;;;;;9.97;100.00;98637.69;5095763;28;20244;-65
2021/05/29 02:33:39;;;;;;;3.67;3.33;;;;;;;10.02;99.76;98652.31;5095459;28;20219;-65
2021/05/29 02:36:07;;;;;;;5.07;3.90;;;;;;;10.01;99.22;98655.03;5095680;28;20218;-65
2021/05/29 02:38:34;;;;;;;4.20;3.80;;;;;;;9.95;99.59;98653.59;5095408;28;20219;-64
2021/05/29 02:41:00;;;;;;;3.40;3.00;;;;;;;9.90;99.75;98658.28;5095484;28;20562;-64
2021/05/29 02:43:27;;;;;;;3.77;3.47;;;;;;;9.92;99.90;98666.13;5095626;28;20581;-63
2021/05/29 02:45:54;;;;;;;4.57;4.17;;;;;;;10.01;98.00;98658.53;5095133;28;20678;-63
2021/05/29 02:48:21;;;;;;;4.67;3.90;;;;;;;10.02;97.80;98659.34;5095233;28;20210;-63
2021/05/29 02:50:48;;;;;;;4.30;3.90;;;;;;;10.06;97.83;98663.56;5093566;28;20223;-63
2021/05/29 02:53:15;;;;;;;4.40;4.00;;;;;;;9.97;98.43;98677.28;5095520;28;20259;-63
2021/05/29 02:55:43;;;;;;;5.07;4.20;;;;;;;9.88;99.34;98669.88;5094502;28;20219;-62
2021/05/29 02:58:09;;;;;;;5.77;4.47;;;;;;;9.80;100.00;98672.13;5094966;28;20221;-63
2021/05/29 03:00:38;;;;;;;4.93;4.20;;;;;;;9.82;100.00;98671.09;5095186;28;20266;-63
2021/05/29 03:03:06;;;;;;;5.37;4.27;;;;;;;9.78;100.00;98674.84;5095169;28;20210;-64
2021/05/29 03:05:34;;;;;;;4.63;4.00;;;;;;;9.70;100.00;98673.56;5094918;28;20710;-64
2021/05/29 03:08:00;;;;;;;4.93;4.43;;;;;;;9.68;100.00;98678.09;5095097;28;20210;-65
2021/05/29 03:10:26;;;;;;;5.17;3.93;;;;;;;9.66;100.00;98685.28;5095043;28;20236;-63
2021/05/29 03:12:53;;;;;;;4.40;4.00;;;;;;;9.54;100.00;98681.50;5095108;28;20217;-63
2021/05/29 03:15:21;;;;;;;3.60;3.30;;;;;;;9.48;100.00;98675.75;5094718;28;20226;-63
2021/05/29 03:17:47;;;;;;;3.80;3.50;;;;;;;9.43;100.00;98677.78;5093322;28;20211;-64
2021/05/29 03:20:16;;;;;;;5.50;4.03;;;;;;;9.40;100.00;98677.94;5094895;28;20224;-64
2021/05/29 03:22:43;;;;;;;4.03;3.73;;;;;;;9.39;100.00;98681.53;5094832;28;20209;-64
2021/05/29 03:25:10;;;;;;;4.40;3.93;;;;;;;9.38;100.00;98685.09;5094508;28;20210;-64
2021/05/29 03:27:37;;;;;;;6.30;3.90;;;;;;;9.34;100.00;98687.06;5094827;28;20213;-64
2021/05/29 03:30:04;;;;;;;5.03;3.93;;;;;;;9.29;100.00;98693.50;5094598;28;20259;-64
2021/05/29 03:32:30;;;;;;;5.83;4.00;;;;;;;9.24;100.00;98695.56;5094466;28;20241;-64
2021/05/29 03:34:56;;;;;;;4.87;4.47;;;;;;;9.26;100.00;98696.34;5094224;28;20217;-64
2021/05/29 03:37:22;;;;;;;4.47;4.07;;;;;;;9.32;100.00;98701.28;5094319;28;20203;-64
2021/05/29 03:39:49;;;;;;;5.00;3.90;;;;;;;9.30;100.00;98697.88;5094623;28;20214;-64
2021/05/29 03:42:15;;;;;;;4.37;3.90;;;;;;;9.35;100.00;98706.38;5094047;28;20608;-64
2021/05/29 03:44:41;;;;;;;4.40;3.73;;;;;;;9.37;100.00;98710.63;5092749;28;20237;-64
2021/05/29 03:47:07;;;;;;;3.60;3.30;;;;;;;9.37;100.00;98704.50;5094153;28;20214;-64
2021/05/29 03:49:33;;;;;;;3.87;3.50;;;;;;;9.42;100.00;98707.75;5094301;28;20213;-64
2021/05/29 03:52:00;;;;;;;4.40;3.87;;;;;;;9.46;100.00;98709.25;5093879;28;20703;-64
2021/05/29 03:54:26;;;;;;;4.43;3.70;;;;;;;9.48;100.00;98708.25;5094405;28;20211;-64
2021/05/29 03:56:52;;;;;;;5.23;4.20;;;;;;;9.53;100.00;98715.91;5094157;28;20300;-63
2021/05/29 03:59:20;;;;;;;3.67;3.33;;;;;;;9.57;100.00;98714.81;5094014;28;20202;-63
2021/05/29 04:01:46;;;;;;;4.20;3.80;;;;;;;9.54;100.00;98712.34;5093697;28;20736;-63
2021/05/29 04:04:12;;;;;;;4.43;4.03;;;;;;;9.59;100.00;98718.19;5093927;28;20253;-64
2021/05/29 04:06:39;;;;;;;4.37;3.67;;;;;;;9.61;100.00;98721.63;5093104;28;20214;-63
2021/05/29 04:09:06;;;;;;;3.70;3.40;;;;;;;9.63;100.00;98712.69;5092039;28;20207;-63
2021/05/29 04:11:33;;;;;;;5.23;4.10;;;;;;;9.62;100.00;98720.69;5093900;28;20233;-63
2021/05/29 04:14:00;;;;;;;5.33;3.43;;;;;;;9.65;100.00;98715.22;5093848;28;20221;-64
2021/05/29 04:16:26;;;;;;;6.00;3.83;;;;;;;9.65;100.00;98720.50;5093740;28;20213;-64
2021/05/29 04:18:52;;;;;;;5.13;3.93;;;;;;;9.63;100.00;98719.72;5093801;28;20621;-64
2021/05/29 04:21:18;;;;;;;4.43;4.00;;;;;;;9.66;100.00;98715.13;5093674;28;20207;-64
2021/05/29 04:23:44;;;;;;;4.53;4.13;;;;;;;9.78;100.00;98716.25;5093763;28;20217;-64
2021/05/29 04:26:11;;;;;;;4.03;3.67;;;;;;;9.81;100.00;98721.34;5093340;28;20246;-64
2021/05/29 04:28:38;;;;;;;4.90;4.20;;;;;;;9.89;100.00;98719.97;5093731;28;20228;-64
2021/05/29 04:31:05;;;;;;;4.07;3.40;;;;;;;9.93;100.00;98732.06;5093614;28;20264;-64
2021/05/29 04:33:32;;;;;;;4.40;4.00;;;;;;;9.95;100.00;98726.66;5093517;28;20206;-63
2021/05/29 04:35:58;;;;;;;3.83;3.50;;;;;;;10.01;100.00;98735.09;5091875;28;20217;-63
2021/05/29 04:38:25;;;;;;;4.00;3.40;;;;;;;10.06;100.00;98737.50;5093357;28;20213;-64
2021/05/29 04:40:51;;;;;;;3.77;3.43;;;;;;;10.19;98.69;98735.84;5093313;28;20215;-64
2021/05/29 04:43:17;;;;;;;4.03;3.63;;;;;;;10.68;97.83;98732.03;5093279;28;20810;-64
2021/05/29 04:45:43;;;;;;;5.20;3.80;;;;;;;11.39;91.94;98736.38;5093420;28;20221;-62
2021/05/29 04:48:11;;;;;;;5.00;3.50;;;;;;;11.95;87.63;98730.97;5093252;28;20285;-62
2021/05/29 04:51:11;;;;;;;4.20;3.20;;;;;;;11.99;85.75;98743.91;5092824;28;20215;-63
2021/05/29 04:53:31;;;;;;;5.30;3.60;;;;;;;11.69;88.38;98729.19;5092883;28;20214;-63
2021/05/29 04:56:00;;;;;;;3.97;3.60;;;;;;;11.52;87.97;98734.66;5092994;28;20297;-63
2021/05/29 04:58:27;;;;;;;4.87;3.27;;;;;;;11.47;88.36;98734.09;5093389;28;20570;-63
2021/05/29 05:00:53;;;;;;;3.73;3.33;;;;;;;11.46;89.49;98737.69;5091176;28;20625;-63
2021/05/29 05:03:21;;;;;;;4.47;3.57;;;;;;;11.61;90.26;98732.31;5093260;28;20210;-64
2021/05/29 05:05:47;;;;;;;3.93;3.17;;;;;;;12.19;85.79;98734.69;5093215;28;20212;-63
2021/05/29 05:08:13;;;;;;;3.17;2.87;;;;;;;13.24;80.02;98738.00;5092983;28;20211;-63
2021/05/29 05:10:39;;;;;;;3.77;3.37;;;;;;;14.15;75.57;98733.06;5093119;28;20252;-63
2021/05/29 05:13:05;;;;;;;5.00;3.00;;;;;;;14.91;72.37;98737.00;5093105;28;20207;-64
2021/05/29 05:15:31;;;;;;;2.83;2.53;;;;;;;15.60;68.63;98728.81;5093142;28;20209;-64
2021/05/29 05:17:57;;;;;;;2.73;2.50;;;;;;;16.40;65.31;98727.44;5095118;28;20569;-63
2021/05/29 05:20:24;;;;;;;3.47;2.97;;;;;;;17.28;62.08;98731.41;5097004;28;20696;-63
2021/05/29 05:22:50;;;;;;;3.27;3.00;;;;;;;17.98;59.09;98730.44;5097303;28;20258;-63
2021/05/29 05:25:17;;;;;;;3.90;2.83;;;;;;;18.51;56.48;98726.44;5096801;28;20213;-64
2021/05/29 05:27:44;;;;;;;2.80;2.60;;;;;;;18.80;54.81;98737.13;5095359;28;20570;-63
2021/05/29 05:30:13;;;;;;;3.43;2.87;;;;;;;18.76;53.49;98744.63;5096753;28;20210;-63
2021/05/29 05:32:41;;;;;;;2.73;2.53;;;;;;;18.51;55.01;98741.66;5096949;28;20230;-64
2021/05/29 05:35:12;;;;;;;3.00;2.70;;;;;;;18.80;55.79;98742.50;5096574;28;20225;-63
2021/05/29 05:37:40;;;;;;;2.87;2.57;;;;;;;19.33;54.77;98747.22;5096942;28;20218;-64
2021/05/29 05:40:07;;;;;;;2.90;2.60;;;;;;;19.77;52.98;98742.97;5096874;28;20214;-63
2021/05/29 05:42:33;;;;;;;2.90;2.37;;;;;;;20.22;51.33;98742.03;5096782;28;20688;-64
2021/05/29 05:45:00;;;;;;;2.97;2.57;;;;;;;20.56;49.53;98745.75;5096797;28;20297;-64
2021/05/29 05:47:26;;;;;;;2.63;2.40;;;;;;;20.86;48.30;98753.38;5096453;28;20672;-63
2021/05/29 05:49:52;;;;;;;3.27;2.67;;;;;;;21.01;47.34;98757.25;5096461;28;20213;-63
2021/05/29 05:52:18;;;;;;;2.73;2.30;;;;;;;20.74;46.92;98759.16;5096159;28;20227;-63
2021/05/29 05:54:45;;;;;;;2.97;2.60;;;;;;;20.52;48.38;98762.28;5094898;28;20211;-63
2021/05/29 05:57:11;;;;;;;3.67;2.87;;;;;;;20.61;47.44;98754.16;5096378;28;20222;-64
2021/05/29 05:59:37;;;;;;;3.43;2.63;;;;;;;21.06;48.14;98748.72;5096538;28;20242;-64
2021/05/29 06:02:03;;;;;;;3.10;2.67;;;;;;;21.62;46.35;98758.00;5096237;28;20256;-64
2021/05/29 06:04:29;;;;;;;2.60;2.40;;;;;;;22.14;45.61;98754.22;5096618;28;20214;-64
2021/05/29 06:06:55;;;;;;;2.10;1.90;;;;;;;22.57;44.85;98755.88;5096297;28;20653;-64
2021/05/29 06:09:21;;;;;;;1.93;1.83;;;;;;;22.81;41.52;98754.06;5095925;28;20771;-63
2021/05/29 06:11:48;;;;;;;1.97;1.77;;;;;;;22.90;40.98;98753.06;5096130;28;20237;-63
2021/05/29 06:19:42;;;;;;;2.60;2.10;;;;;;;23.25;39.97;98752.75;5094219;28;20573;-64
2021/05/29 06:22:08;;;;;;;2.37;2.17;;;;;;;22.85;40.31;98763.50;5095785;28;20215;-64
2021/05/29 06:24:37;;;;;;;2.40;2.20;;;;;;;22.09;41.40;98761.09;5095802;28;20237;-64
2021/05/29 06:27:05;;;;;;;2.60;2.10;;;;;;;21.49;42.56;98768.34;5095946;28;20206;-64
2021/05/29 06:29:31;;;;;;;1.73;1.63;;;;;;;21.84;42.11;98767.41;5095032;28;20249;-64
2021/05/29 06:31:57;;;;;;;2.67;2.10;;;;;;;22.31;42.34;98772.13;5095742;28;20243;-64
2021/05/29 06:34:23;;;;;;;2.93;2.13;;;;;;;22.49;41.57;98775.56;5095402;28;20745;-64
2021/05/29 06:36:50;;;;;;;2.33;2.13;;;;;;;22.29;41.21;98768.75;5095433;28;20680;-64
2021/05/29 06:39:18;;;;;;;2.43;2.20;;;;;;;22.11;43.38;98780.63;5095549;28;20221;-64
2021/05/29 06:41:45;;;;;;;2.17;1.97;;;;;;;22.26;42.57;98784.41;5095117;28;20708;-64
2021/05/29 06:44:12;;;;;;;2.37;2.10;;;;;;;22.29;42.62;98789.44;5095371;28;20594;-64
2021/05/29 06:46:40;;;;;;;2.63;2.10;;;;;;;22.02;42.33;98777.09;5093938;28;20621;-64
2021/05/29 06:49:06;;;;;;;2.30;2.10;;;;;;;22.03;42.24;98778.78;5095369;28;20207;-64
2021/05/29 06:51:38;;;;;;;3.33;2.20;;;;;;;21.69;42.86;98787.84;5095212;28;20262;-64
2021/05/29 06:54:07;;;;;;;2.80;1.90;;;;;;;21.33;42.54;98795.13;5095454;28;20210;-64
2021/05/29 06:59:18;;;;;;;2.20;2.00;;;;;;;20.89;45.34;98793.44;5094990;28;20717;-64
2021/05/29 07:01:44;;;;;;;2.10;1.90;;;;;;;20.68;46.53;98792.88;5095008;28;20211;-64
2021/05/29 07:04:10;;;;;;;2.97;2.30;;;;;;;19.85;49.06;98792.19;5094933;28;20214;-64
2021/05/29 07:06:36;;;;;;;2.67;2.33;;;;;;;18.64;52.11;98788.59;5095024;28;20211;-64
2021/05/29 07:09:04;;;;;;;4.03;2.70;;;;;;;17.70;55.22;98792.69;5095106;28;20211;-64
2021/05/29 07:11:30;;;;;;;2.60;2.40;;;;;;;17.21;57.94;98794.34;5092881;28;20227;-64
2021/05/29 07:13:56;;;;;;;3.40;2.40;;;;;;;16.76;57.46;98799.09;5094981;28;20212;-64
2021/05/29 07:16:22;;;;;;;3.27;2.30;;;;;;;16.59;57.76;98796.97;5094895;28;20647;-64
2021/05/29 07:18:49;;;;;;;2.47;2.20;;;;;;;16.44;58.79;98792.06;5094862;28;20215;-64
2021/05/29 07:21:16;;;;;;;2.47;2.27;;;;;;;16.32;61.13;98788.56;5094444;28;20669;-64
2021/05/29 07:23:43;;;;;;;2.97;1.93;;;;;;;16.21;60.39;98782.41;5094827;28;20226;-64
2021/05/29 07:26:09;;;;;;;3.07;2.43;;;;;;;16.23;63.28;98789.31;5094758;28;20217;-64
2021/05/29 07:28:35;;;;;;;3.37;2.60;;;;;;;16.42;63.59;98784.19;5094771;28;20578;-63
2021/05/29 07:31:02;;;;;;;2.37;2.17;;;;;;;16.55;62.83;98781.34;5094120;28;20668;-64
2021/05/29 07:33:29;;;;;;;4.00;2.30;;;;;;;16.62;64.13;98779.84;5094163;28;20215;-64
2021/05/29 07:35:56;;;;;;;2.30;2.10;;;;;;;16.70;60.55;98780.91;5094358;28;20206;-63
2021/05/29 07:38:23;;;;;;;2.30;2.10;;;;;;;16.68;60.15;98777.53;5092866;28;20297;-64
2021/05/29 07:40:49;;;;;;;2.17;2.07;;;;;;;16.70;59.03;98772.91;5094370;28;20218;-64
2021/05/29 07:43:15;;;;;;;2.50;1.97;;;;;;;16.74;59.15;98779.69;5094455;28;20242;-64
2021/05/29 07:45:41;;;;;;;2.70;2.30;;;;;;;16.89;60.05;98778.38;5094042;28;20699;-64
2021/05/29 07:48:08;;;;;;;2.30;2.07;;;;;;;16.93;58.91;98779.84;5094028;28;20680;-64
2021/05/29 07:50:35;;;;;;;2.10;1.90;;;;;;;16.95;54.53;98777.88;5094266;28;20298;-64
2021/05/29 07:53:21;;;;;;;3.40;2.13;;;;;;;16.91;57.32;98781.81;5093732;28;20300;-64
2021/05/29 07:55:47;;;;;;;2.10;2.00;;;;;;;16.84;57.38;98785.09;5094202;28;20667;-63
2021/05/29 07:58:13;;;;;;;2.17;1.80;;;;;;;16.80;57.21;98776.50;5090242;28;20268;-64
2021/05/29 08:00:39;;;;;;;2.87;2.27;;;;;;;16.89;55.38;98773.06;5092925;28;20239;-64
2021/05/29 08:03:05;;;;;;;2.03;1.80;;;;;;;16.98;57.10;98777.63;5092364;28;20714;-64
2021/05/29 08:05:31;;;;;;;2.07;1.93;;;;;;;17.12;55.33;98784.47;5091307;28;20207;-64
2021/05/29 08:07:58;;;;;;;2.37;2.00;;;;;;;17.06;55.46;98780.47;5092109;28;20660;-64
2021/05/29 08:10:24;;;;;;;1.97;1.80;;;;;;;17.00;58.44;98772.16;5093709;28;20229;-64
2021/05/29 08:12:50;;;;;;;1.83;1.73;;;;;;;17.19;60.13;98780.31;5093791;28;20234;-64
2021/05/29 08:15:16;;;;;;;2.20;1.80;;;;;;;17.33;56.23;98778.13;5093929;28;20275;-65
2021/05/29 08:17:42;;;;;;;2.60;1.80;;;;;;;17.35;52.29;98770.81;5093743;28;20203;-65
2021/05/29 08:20:09;;;;;;;2.23;1.97;;;;;;;17.28;49.83;98777.69;5093692;28;20553;-65
2021/05/29 08:22:35;;;;;;;2.57;1.93;;;;;;;17.05;51.34;98773.47;5093362;28;20211;-64
2021/05/29 08:25:02;;;;;;;2.33;1.90;;;;;;;17.12;51.41;98776.47;5093690;28;20202;-64
2021/05/29 08:27:28;;;;;;;2.40;1.63;;;;;;;17.20;53.48;98782.81;5093632;28;20206;-64
2021/05/29 08:29:54;;;;;;;2.70;1.80;;;;;;;17.42;53.06;98788.06;5091958;28;20652;-65
2021/05/29 08:32:20;;;;;;;2.47;1.60;;;;;;;17.40;56.46;98779.34;5093603;28;20237;-65
2021/05/29 08:34:46;;;;;;;3.17;1.90;;;;;;;17.54;57.13;98772.75;5093220;28;20672;-65
2021/05/29 08:37:12;;;;;;;2.03;1.83;;;;;;;17.80;55.95;98777.53;5093538;28;20310;-64
2021/05/29 08:39:38;;;;;;;2.73;1.73;;;;;;;17.93;56.60;98770.09;5093455;28;20275;-65
2021/05/29 08:42:06;;;;;;;3.83;2.10;;;;;;;18.06;53.86;98778.75;5093325;28;20270;-65
2021/05/29 08:44:33;;;;;;;2.80;1.63;;;;;;;18.09;52.52;98770.44;5093426;28;20336;-65
2021/05/29 08:46:59;;;;;;;3.37;1.80;;;;;;;18.29;56.38;98777.50;5093058;28;20207;-65
2021/05/29 08:49:25;;;;;;;2.53;1.83;;;;;;;18.39;54.35;98789.13;5093294;28;20260;-65
2021/05/29 08:51:51;;;;;;;2.23;1.83;;;;;;;18.37;51.56;98783.06;5092571;28;20235;-65
2021/05/29 08:54:17;;;;;;;2.07;1.87;;;;;;;18.43;52.76;98782.53;5093225;28;20557;-64
2021/05/29 08:56:43;;;;;;;3.07;2.00;;;;;;;18.30;51.05;98784.56;5091616;28;20216;-65
2021/05/29 08:59:11;;;;;;;1.80;1.70;;;;;;;18.14;53.44;98781.59;5093331;28;20737;-64
2021/05/29 09:01:37;;;;;;;1.80;1.70;;;;;;;18.18;54.37;98783.00;5093123;28;20214;-65
2021/05/29 09:04:05;;;;;;;2.07;1.50;;;;;;;18.24;52.06;98779.75;5093053;28;20210;-64
2021/05/29 09:06:42;;;;;;;3.53;1.73;;;;;;;18.31;50.66;98778.28;5093281;28;20207;-65
2021/05/29 09:09:10;;;;;;;2.10;2.00;;;;;;;18.37;46.51;98776.88;5092923;28;20210;-65
2021/05/29 09:11:47;;;;;;;2.90;1.90;;;;;;;18.42;47.65;98769.28;5092788;28;20318;-64
2021/05/29 09:14:37;;;;;;;1.97;1.77;;;;;;;18.51;47.01;98771.94;5092888;28;20221;-64
2021/05/29 09:17:06;;;;;;;1.97;1.83;;;;;;;18.70;47.09;98769.28;5093128;28;20218;-64
2021/05/29 09:19:50;;;;;;;2.50;1.90;;;;;;;18.74;49.65;98778.72;5093138;28;20577;-65
2021/05/29 09:22:16;;;;;;;2.73;2.00;;;;;;;18.82;53.28;98778.88;5091419;28;20569;-65
2021/05/29 09:24:55;;;;;;;3.67;1.87;;;;;;;18.88;51.80;98780.97;5092912;28;20212;-64
2021/05/29 09:27:21;;;;;;;2.13;1.60;;;;;;;18.98;47.58;98779.16;5093023;28;20237;-64
2021/05/29 09:29:48;;;;;;;2.67;2.23;;;;;;;19.29;46.93;98772.63;5092941;28;20567;-64
2021/05/29 09:32:14;;;;;;;2.00;1.80;;;;;;;19.39;46.92;98786.84;5092772;28;20230;-64
2021/05/29 09:34:43;;;;;;;2.67;1.80;;;;;;;19.36;46.23;98781.78;5092782;28;20754;-65
2021/05/29 09:37:12;;;;;;;2.27;2.03;;;;;;;19.21;48.37;98796.59;5093045;28;20217;-64
2021/05/29 09:39:40;;;;;;;2.33;2.00;;;;;;;18.97;47.02;98793.50;5092667;28;20212;-65
2021/05/29 09:42:08;;;;;;;2.23;2.03;;;;;;;18.81;49.05;98798.59;5092791;28;20237;-64
2021/05/29 09:44:34;;;;;;;2.10;1.90;;;;;;;18.70;49.02;98795.19;5092626;28;20263;-64
2021/05/29 09:47:03;;;;;;;1.87;1.77;;;;;;;18.61;51.69;98799.59;5092930;28;20350;-64
2021/05/29 09:49:51;;;;;;;1.93;1.80;;;;;;;18.73;50.74;98786.91;5091236;28;20211;-64
2021/05/29 09:52:29;;;;;;;1.57;1.47;;;;;;;18.95;49.29;98784.78;5092617;28;20230;-64
2021/05/29 09:54:59;;;;;;;2.57;1.63;;;;;;;18.99;50.58;98788.88;5092702;28;20260;-64
2021/05/29 09:57:25;;;;;;;2.17;1.80;;;;;;;19.10;47.32;98790.53;5092357;28;20703;-65
2021/05/29 09:59:55;;;;;;;2.23;1.70;;;;;;;19.22;46.21;98787.59;5092977;28;20210;-64
2021/05/29 10:02:22;;;;;;;1.60;1.33;;;;;;;19.34;45.64;98802.53;5093158;28;20210;-64
2021/05/29 10:04:53;;;;;;;2.13;1.40;;;;;;;18.93;44.50;98791.25;5094694;28;20214;-64
2021/05/29 10:07:20;;;;;;;1.90;1.47;;;;;;;18.84;44.52;98792.94;5097094;28;20578;-64
2021/05/29 10:09:46;;;;;;;2.13;1.23;;;;;;;18.67;41.50;98801.72;5096488;28;20221;-64
2021/05/29 10:12:13;;;;;;;2.80;1.70;;;;;;;18.46;46.74;98792.94;5096167;28;20589;-64
2021/05/29 10:14:40;;;;;;;1.57;1.20;;;;;;;18.43;45.83;98790.56;5094654;28;20211;-64
2021/05/29 10:17:08;;;;;;;1.63;1.40;;;;;;;18.60;45.64;98781.81;5095752;28;20210;-64
2021/05/29 10:19:36;;;;;;;1.87;1.47;;;;;;;18.59;40.96;98790.00;5095542;28;20211;-64
2021/05/29 10:22:07;;;;;;;1.47;1.37;;;;;;;18.78;41.87;98785.47;5095815;28;20211;-64
2021/05/29 10:24:33;;;;;;;1.87;1.30;;;;;;;18.89;42.44;98784.50;5095545;28;20207;-64
2021/05/29 10:27:05;;;;;;;3.27;1.50;;;;;;;18.91;44.94;98799.44;5095941;28;20211;-65
2021/05/29 10:29:32;;;;;;;1.33;1.23;;;;;;;18.93;49.84;98793.94;5095551;28;20264;-64
2021/05/29 10:32:16;;;;;;;1.30;1.20;;;;;;;18.79;41.19;98795.22;5095825;28;20280;-63
2021/05/29 10:34:57;;;;;;;2.20;1.27;;;;;;;18.62;41.08;98797.75;5095632;28;20219;-64
2021/05/29 10:37:28;;;;;;;1.10;1.00;;;;;;;18.70;41.91;98790.69;5095704;28;20211;-65
2021/05/29 10:39:54;;;;;;;2.67;1.50;;;;;;;18.80;41.06;98794.25;5093777;28;20221;-65
2021/05/29 10:42:31;;;;;;;1.20;1.10;;;;;;;18.99;43.98;98790.69;5095722;28;20238;-64
2021/05/29 10:45:13;;;;;;;1.87;1.43;;;;;;;18.98;46.56;98791.69;5095281;28;20210;-65
2021/05/29 10:48:00;;;;;;;1.30;1.20;;;;;;;19.01;43.99;98789.56;5095543;28;20577;-65
2021/05/29 10:50:55;;;;;;;1.33;1.23;;;;;;;19.14;45.46;98784.75;5095382;28;20210;-64
2021/05/29 10:53:39;;;;;;;1.63;1.20;;;;;;;19.20;43.89;98791.38;5095373;28;20243;-63
2021/05/29 10:56:26;;;;;;;1.30;1.17;;;;;;;19.17;41.63;98786.28;5095280;28;20207;-63
2021/05/29 10:58:56;;;;;;;1.70;1.27;;;;;;;19.20;39.72;98781.53;5094893;28;20216;-64
2021/05/29 11:01:22;;;;;;;1.10;0.97;;;;;;;19.37;43.33;98780.78;5095251;28;20209;-63
2021/05/29 11:04:21;;;;;;;1.47;1.00;;;;;;;19.45;45.57;98782.75;5095290;28;20213;-64
2021/05/29 11:06:49;;;;;;;1.20;1.10;;;;;;;19.61;44.90;98783.81;5093403;28;20283;-64
2021/05/29 11:09:17;;;;;;;1.87;1.20;;;;;;;19.83;45.54;98785.28;5095126;28;20301;-63
2021/05/29 11:11:57;;;;;;;0.90;0.83;;;;;;;19.72;41.15;98780.97;5094673;28;20238;-63
2021/05/29 11:14:25;;;;;;;1.53;1.07;;;;;;;19.63;40.22;98781.00;5094935;28;20622;-63
2021/05/29 11:17:11;;;;;;;1.10;0.97;;;;;;;19.32;40.86;98791.09;5094192;28;20219;-64
2021/05/29 11:19:39;;;;;;;1.70;1.10;;;;;;;19.09;39.74;98780.81;5094884;28;20218;-63
2021/05/29 11:22:08;;;;;;;1.20;1.10;;;;;;;18.98;42.50;98779.16;5094553;28;20678;-64
2021/05/29 11:24:36;;;;;;;1.30;1.20;;;;;;;19.09;41.11;98778.13;5094843;28;20694;-63
2021/05/29 11:27:05;;;;;;;2.57;1.20;;;;;;;19.14;39.09;98774.03;5094790;28;20627;-63
2021/05/29 11:29:31;;;;;;;1.03;0.93;;;;;;;19.31;39.27;98770.66;5094495;28;20218;-64
2021/05/29 11:31:57;;;;;;;1.10;0.93;;;;;;;19.56;39.44;98770.00;5092807;28;20231;-64
2021/05/29 11:34:23;;;;;;;0.97;0.90;;;;;;;19.35;39.80;98766.69;5094781;28;20209;-64
2021/05/29 11:36:49;;;;;;;1.07;0.90;;;;;;;19.52;39.68;98775.81;5094352;28;20210;-64
2021/05/29 11:39:17;;;;;;;1.57;0.90;;;;;;;19.28;40.41;98775.44;5094514;28;20217;-64
2021/05/29 11:41:44;;;;;;;0.83;0.80;;;;;;;19.21;36.46;98775.16;5093968;28;20333;-64
2021/05/29 11:44:20;;;;;;;0.83;0.83;;;;;;;19.37;36.11;98759.34;5094598;28;20298;-64
2021/05/29 11:46:46;;;;;;;0.80;0.80;;;;;;;19.46;37.78;98763.84;5094007;28;20206;-64